There are no active watches, warnings or advisories for Caledonia (Vermont).

Nearby METAR Reports

 

KCDA - Lyndonville, Vermont, USA
Distance from station: ENE 11mi, 18km
Updated: Mon, 26-Jun-2017 4:35am EDT
Mist, Overcast
Mist, Overcast
 Wind from calm
Wind: Calm
Temperature: 50°F , 10°C
Dew Point: 50°F , 10°C
Humidity: 100%
Barometer: 29.94 inHg , 1013.9 hPa
Summary: Mist
Clouds: Overcast
Visibility: 5 miles , 8 km
Cloud details: Partly cloudy 4000 ft
Partly cloudy 4800 ft
Overcast 5500 ft
2017/06/26 08:35 KCDA 260835Z AUTO 00000KT 5SM BR SCT040 SCT048 OVC055 10/10 A2994 RMK AO2 T01040101
K1V4 - St. Johnsbury, Vermont, USA
Distance from station: ESE 12mi, 19km
Updated: Mon, 26-Jun-2017 3:54am EDT

 
Temperature: 52°F , 11°C
Dew Point: 52°F , 11°C
Humidity: 100%
Barometer: 29.90 inHg , 1012.5 hPa
2017/06/26 07:54 K1V4 260754Z AUTO 11/11 A2990 RMK AO1 SLP123 T01110111
 
KMVL - Morrisville, Vermont, USA
Distance from station: W 20mi, 31km
Updated: Mon, 26-Jun-2017 3:54am EDT
Mostly cloudy
Mostly cloudy
 Wind from SSE
Wind: SSE 3 mph , 6 km/h
Temperature: 52°F , 11°C
Dew Point: 48°F , 9°C
Humidity: 88%
Barometer: 29.93 inHg , 1013.5 hPa
Clouds: Mostly cloudy
Visibility: 10 miles , 16 km
Cloud details: Few Clouds 4400 ft
Mostly cloudy 6500 ft
2017/06/26 07:54 KMVL 260754Z AUTO 15003KT 10SM FEW044 BKN065 11/09 A2993 RMK AO2 SLP136 T01110094 $
KEFK - Newport State, Vermont, USA
Distance from station: N 26mi, 42km
Updated: Mon, 26-Jun-2017 4:35am EDT
Overcast
Overcast
 Wind from WSW
Wind: WSW 7 mph , 11 km/h
Temperature: 55°F , 13°C
Dew Point: 48°F , 9°C
Humidity: 77%
Barometer: 29.92 inHg , 1013.2 hPa
Clouds: Overcast
Visibility: 10 miles , 16 km
Cloud details: Partly cloudy 3400 ft
Partly cloudy 4300 ft
Overcast 7000 ft
2017/06/26 08:35 KEFK 260835Z AUTO 25006KT 10SM SCT034 SCT043 OVC070 13/09 A2992 RMK AO2 T01250092
 
KMPV - Montpelier/Barre, Vermont, USA
Distance from station: SW 27mi, 44km
Updated: Mon, 26-Jun-2017 4:51am EDT
Mostly cloudy
Mostly cloudy
 Wind from S
Wind: S 5 mph , 7 km/h
Temperature: 50°F , 10°C
Wind Chill: 48°F , 9°C
Dew Point: 48°F , 9°C
Humidity: 94%
Barometer: 29.97 inHg , 1014.9 hPa
Clouds: Mostly cloudy
Visibility: 10 miles , 16 km
Cloud details: Few Clouds 3300 ft
Mostly cloudy 4000 ft
2017/06/26 08:51 KMPV 260851Z AUTO 17004KT 10SM FEW033 BKN040 10/09 A2997 RMK AO2 SLP150 T01000089 $
KHIE - Whitefield, New Hampshire, USA
Distance from station: ESE 34mi, 55km
Updated: Mon, 26-Jun-2017 4:52am EDT
Clear
Clear
 Wind from calm
Wind: Calm
Temperature: 46°F , 8°C
Dew Point: 43°F , 6°C
Humidity: 87%
Barometer: 29.93 inHg , 1013.5 hPa
Clouds: Clear
Visibility: 10 miles , 16 km
2017/06/26 08:52 KHIE 260852Z AUTO 00000KT 10SM CLR 08/06 A2993 RMK AO2 SLP135 60001 T00780061 53005
 
KBTV - Burlington, Vermont, USA
Distance from station: W 46mi, 74km
Updated: Mon, 26-Jun-2017 3:54am EDT
Clear
Clear
 Wind from S
Wind: S 5 mph , 7 km/h
Temperature: 57°F , 14°C
Dew Point: 48°F , 9°C
Humidity: 72%
Barometer: 29.92 inHg , 1013.2 hPa
Clouds: Clear
Visibility: 10 miles , 16 km
2017/06/26 07:54 KBTV 260754Z 18004KT 10SM CLR 14/09 A2992 RMK AO2 SLP131 T01390094 $
CWFQ - Frelighsburg, Quebec, Canada
Distance from station: NW 47mi, 75km
Updated: Mon, 26-Jun-2017 4:00am EDT

 Wind from S
Wind: S 1 mph , 2 km/h
Temperature: 54°F , 12°C
Dew Point: 52°F , 11°C
Humidity: 94%
2017/06/26 08:00 CWFQ 260800Z AUTO 18001KT 12/11 RMK AO1 3003 SLP124 T01190113 50002
 
KMWN - Mount Washington, New Hampshire, USA
Distance from station: ESE 49mi, 79km
Updated: Mon, 26-Jun-2017 3:48am EDT
Fog, Overcast
Fog, Overcast
 Wind from W
Wind: W 53 mph , 85 km/h
Temperature: 36°F , 2°C
Wind Chill: 20°F , -7°C
Dew Point: 36°F , 2°C
Humidity: 100%
Summary: Fog
Clouds: Overcast
Visibility: 0 miles , 0 km
Cloud details: Overcast 0 ft
2017/06/26 07:48 KMWN 260748Z 27046KT 0SM FG VV000 02/02 RMK
KBML - Berlin, New Hampshire, USA
Distance from station: E 51mi, 83km
Updated: Mon, 26-Jun-2017 4:49am EDT
Mist, Overcast
Mist, Overcast
 Wind from calm
Wind: Calm
Temperature: 48°F , 9°C
Dew Point: 46°F , 8°C
Humidity: 94%
Barometer: 29.91 inHg , 1012.9 hPa
Summary: Mist
Clouds: Overcast
Visibility: 1 3/4 miles , 5 km
Cloud details: Mostly cloudy 100 ft
Mostly cloudy 3100 ft
Overcast 3900 ft
2017/06/26 08:49 KBML 260849Z AUTO 00000KT 1 3/4SM BR BKN001 BKN031 OVC039 09/08 A2991 RMK AO2
 
KFSO - Highgate, Vermont, USA
Distance from station: NW 52mi, 84km
Updated: Mon, 26-Jun-2017 4:35am EDT
Mostly cloudy
Mostly cloudy
 Wind from WSW
Wind: WSW 6 mph , 9 km/h
Temperature: 57°F , 14°C
Dew Point: 52°F , 11°C
Humidity: 82%
Barometer: 29.91 inHg , 1012.9 hPa
Clouds: Mostly cloudy
Visibility: 10 miles , 16 km
Cloud details: Partly cloudy 6000 ft
Mostly cloudy 8000 ft
2017/06/26 08:35 KFSO 260835Z AUTO 25005KT 10SM SCT060 BKN080 14/11 A2991 RMK AO2 T01370105
CWTT - Lac Memphremagog, Quebec, Canada
Distance from station: N 53mi, 85km
Updated: Mon, 26-Jun-2017 4:00am EDT

 Wind from WSW
Wind: WSW 12 mph , 19 km/h
Temperature: 55°F , 13°C
Dew Point: 52°F , 11°C
Humidity: 88%
2017/06/26 08:00 CWTT 260800Z AUTO 25010KT 13/11 RMK AO1 PK WND 26017/0712 T01250109
 
K1P1 - Plymouth, New Hampshire, USA
Distance from station: SSE 55mi, 88km
Updated: Mon, 26-Jun-2017 4:55am EDT
Clear
Clear
 Wind from calm
Wind: Calm
Temperature: 50°F , 10°C
Dew Point: 50°F , 10°C
Humidity: 100%
Barometer: 29.92 inHg , 1013.2 hPa
Clouds: Clear
Visibility: 10 miles , 16 km
2017/06/26 08:55 K1P1 260855Z AUTO 00000KT 10SM CLR 10/10 A2992 RMK AO2 T01010096
KLEB - Lebanon, New Hampshire, USA
Distance from station: S 60mi, 97km
Updated: Mon, 26-Jun-2017 3:53am EDT
Clear
Clear
 Wind from S
Wind: S 5 mph , 7 km/h
Temperature: 55°F , 13°C
Dew Point: 48°F , 9°C
Humidity: 77%
Barometer: 29.93 inHg , 1013.5 hPa
Clouds: Clear
Visibility: 10 miles , 16 km
2017/06/26 07:53 KLEB 260753Z AUTO 19004KT 10SM CLR 13/09 A2993 RMK AO2 SLP126 T01330089
 
KPBG - Plattsburgh Afb, New York, USA
Distance from station: W 62mi, 100km
Updated: Mon, 26-Jun-2017 2:53am EDT
NOT Current
Clear
Clear
 Wind from SW
Wind: SW 3 mph , 6 km/h
Temperature: 57°F , 14°C
Dew Point: 48°F , 9°C
Humidity: 72%
Barometer: 29.90 inHg , 1012.5 hPa
Clouds: Clear
Visibility: 10 miles , 16 km
2017/06/26 06:53 KPBG 260653Z AUTO 23003KT 10SM CLR 14/09 A2990 RMK AO2 SLP125 T01390089
CWQH - Lennoxville, Quebec, Canada
Distance from station: NNE 63mi, 101km
Updated: Mon, 26-Jun-2017 4:00am EDT

 Wind from SSW
Wind: SSW 6 mph , 9 km/h
Temperature: 55°F , 13°C
Dew Point: 54°F , 12°C
Humidity: 94%
2017/06/26 08:00 CWQH 260800Z AUTO 20005KT 13/12 RMK AO1 T01270122
 
CMGB - Granby, Quebec, Canada
Distance from station: NNW 65mi, 105km
Updated: Mon, 26-Jun-2017 4:45am EDT

 Wind from SW
Wind: SW 2 mph , 4 km/h
Temperature: 54°F , 12°C
Dew Point: 52°F , 11°C
Humidity: 94%
2017/06/26 08:45 CMGB 260845Z AUTO 22002KT 12/11 RMK AO1 SLP118 T01240109 51004
CYSC - Sherbrooke, Quebec, Canada
Distance from station: NNE 69mi, 112km
Updated: Mon, 26-Jun-2017 4:42am EDT
Overcast
Overcast
 Wind from WSW
Wind: WSW 7 mph , 11 km/h
Temperature: 54°F , 12°C
Dew Point: 52°F , 11°C
Humidity: 94%
Barometer: 29.88 inHg , 1011.9 hPa
Clouds: Overcast
Visibility: 9 miles , 14 km
Cloud details: Mostly cloudy 1700 ft
Overcast 9500 ft
2017/06/26 08:42 CYSC 260842Z AUTO 24006KT 9SM BKN017 OVC095 12/11 A2988 RMK SLP120
 
KIZG - Fryeburg, Maine, USA
Distance from station: ESE 72mi, 117km
Updated: Mon, 26-Jun-2017 3:54am EDT
Clear
Clear
 Wind from W
Wind: W 6 mph , 9 km/h
Temperature: 55°F , 13°C
Dew Point: 54°F , 12°C
Humidity: 94%
Barometer: 29.89 inHg , 1012.2 hPa
Clouds: Clear
Visibility: 10 miles , 16 km
2017/06/26 07:54 KIZG 260754Z AUTO 26005KT 10SM CLR 13/12 A2989 RMK AO2 SLP121 T01280117